sensor_id;sensor_type;location;lat;lon;timestamp;P1;durP1;ratioP1;P2;durP2;ratioP2
4638;SDS011;2332;38.646;-9.154;2023-01-19T00:00:04;10.73;;;4.43;;
4638;SDS011;2332;38.646;-9.154;2023-01-19T00:02:30;21.50;;;9.53;;
4638;SDS011;2332;38.646;-9.154;2023-01-19T00:04:56;24.90;;;12.40;;
4638;SDS011;2332;38.646;-9.154;2023-01-19T00:07:23;23.60;;;11.93;;
4638;SDS011;2332;38.646;-9.154;2023-01-19T00:09:48;22.90;;;11.50;;
4638;SDS011;2332;38.646;-9.154;2023-01-19T00:12:14;27.70;;;11.83;;
4638;SDS011;2332;38.646;-9.154;2023-01-19T00:14:39;24.50;;;9.43;;
4638;SDS011;2332;38.646;-9.154;2023-01-19T00:17:05;19.80;;;8.33;;
4638;SDS011;2332;38.646;-9.154;2023-01-19T00:19:30;19.10;;;8.77;;
4638;SDS011;2332;38.646;-9.154;2023-01-19T00:21:55;21.90;;;8.80;;
4638;SDS011;2332;38.646;-9.154;2023-01-19T00:24:21;17.20;;;8.30;;
4638;SDS011;2332;38.646;-9.154;2023-01-19T00:26:46;24.83;;;8.67;;
4638;SDS011;2332;38.646;-9.154;2023-01-19T00:29:12;21.07;;;8.57;;
4638;SDS011;2332;38.646;-9.154;2023-01-19T00:31:38;17.83;;;8.10;;
4638;SDS011;2332;38.646;-9.154;2023-01-19T00:34:04;23.40;;;9.47;;
4638;SDS011;2332;38.646;-9.154;2023-01-19T00:36:30;37.70;;;19.33;;
4638;SDS011;2332;38.646;-9.154;2023-01-19T00:38:55;25.93;;;14.83;;
4638;SDS011;2332;38.646;-9.154;2023-01-19T00:41:23;29.00;;;12.80;;
4638;SDS011;2332;38.646;-9.154;2023-01-19T00:44:08;33.13;;;13.00;;
4638;SDS011;2332;38.646;-9.154;2023-01-19T00:46:34;30.70;;;14.23;;
4638;SDS011;2332;38.646;-9.154;2023-01-19T00:48:59;30.30;;;15.07;;
4638;SDS011;2332;38.646;-9.154;2023-01-19T00:51:25;31.73;;;15.67;;
4638;SDS011;2332;38.646;-9.154;2023-01-19T00:53:50;37.50;;;14.90;;
4638;SDS011;2332;38.646;-9.154;2023-01-19T00:56:16;31.13;;;15.33;;
4638;SDS011;2332;38.646;-9.154;2023-01-19T00:58:41;28.50;;;14.77;;
4638;SDS011;2332;38.646;-9.154;2023-01-19T01:01:07;27.53;;;16.03;;
4638;SDS011;2332;38.646;-9.154;2023-01-19T01:03:32;29.70;;;14.63;;
4638;SDS011;2332;38.646;-9.154;2023-01-19T01:05:57;29.20;;;13.37;;
4638;SDS011;2332;38.646;-9.154;2023-01-19T01:08:23;30.20;;;15.17;;
4638;SDS011;2332;38.646;-9.154;2023-01-19T01:10:49;27.70;;;13.40;;
4638;SDS011;2332;38.646;-9.154;2023-01-19T01:13:14;34.10;;;13.03;;
4638;SDS011;2332;38.646;-9.154;2023-01-19T01:15:40;29.20;;;13.20;;
4638;SDS011;2332;38.646;-9.154;2023-01-19T01:18:05;22.27;;;13.00;;
4638;SDS011;2332;38.646;-9.154;2023-01-19T01:20:30;31.23;;;14.60;;
4638;SDS011;2332;38.646;-9.154;2023-01-19T01:22:58;31.10;;;13.70;;
4638;SDS011;2332;38.646;-9.154;2023-01-19T01:25:24;24.73;;;13.40;;
4638;SDS011;2332;38.646;-9.154;2023-01-19T01:27:50;30.23;;;14.40;;
4638;SDS011;2332;38.646;-9.154;2023-01-19T01:30:15;30.70;;;13.90;;
4638;SDS011;2332;38.646;-9.154;2023-01-19T01:32:41;24.20;;;13.57;;
4638;SDS011;2332;38.646;-9.154;2023-01-19T01:35:08;34.33;;;13.43;;
4638;SDS011;2332;38.646;-9.154;2023-01-19T01:37:34;30.40;;;13.70;;
4638;SDS011;2332;38.646;-9.154;2023-01-19T01:40:00;29.67;;;14.50;;
4638;SDS011;2332;38.646;-9.154;2023-01-19T01:42:27;26.93;;;14.10;;
4638;SDS011;2332;38.646;-9.154;2023-01-19T01:44:54;26.17;;;12.70;;
4638;SDS011;2332;38.646;-9.154;2023-01-19T01:47:22;36.63;;;16.50;;
4638;SDS011;2332;38.646;-9.154;2023-01-19T01:49:48;36.00;;;15.83;;
4638;SDS011;2332;38.646;-9.154;2023-01-19T01:52:15;38.47;;;16.00;;
4638;SDS011;2332;38.646;-9.154;2023-01-19T01:54:41;25.50;;;13.20;;
4638;SDS011;2332;38.646;-9.154;2023-01-19T01:57:07;27.93;;;15.83;;
4638;SDS011;2332;38.646;-9.154;2023-01-19T01:59:40;33.93;;;16.70;;
4638;SDS011;2332;38.646;-9.154;2023-01-19T02:02:11;31.57;;;16.50;;
4638;SDS011;2332;38.646;-9.154;2023-01-19T02:04:59;31.77;;;15.90;;
4638;SDS011;2332;38.646;-9.154;2023-01-19T02:10:17;31.70;;;15.23;;
4638;SDS011;2332;38.646;-9.154;2023-01-19T02:13:01;28.30;;;14.90;;
4638;SDS011;2332;38.646;-9.154;2023-01-19T02:15:46;27.73;;;14.60;;
4638;SDS011;2332;38.646;-9.154;2023-01-19T02:18:12;31.93;;;12.60;;
4638;SDS011;2332;38.646;-9.154;2023-01-19T02:20:38;36.63;;;12.63;;
4638;SDS011;2332;38.646;-9.154;2023-01-19T02:23:06;26.50;;;12.10;;
4638;SDS011;2332;38.646;-9.154;2023-01-19T02:25:33;31.80;;;13.70;;
4638;SDS011;2332;38.646;-9.154;2023-01-19T02:27:58;28.70;;;13.20;;
4638;SDS011;2332;38.646;-9.154;2023-01-19T02:30:24;17.60;;;11.13;;
4638;SDS011;2332;38.646;-9.154;2023-01-19T02:32:50;21.07;;;10.73;;
4638;SDS011;2332;38.646;-9.154;2023-01-19T02:35:16;22.50;;;12.20;;
4638;SDS011;2332;38.646;-9.154;2023-01-19T02:37:41;25.30;;;12.03;;
4638;SDS011;2332;38.646;-9.154;2023-01-19T02:40:11;23.73;;;11.00;;
4638;SDS011;2332;38.646;-9.154;2023-01-19T02:42:47;21.47;;;10.87;;
4638;SDS011;2332;38.646;-9.154;2023-01-19T02:45:13;18.73;;;10.70;;
4638;SDS011;2332;38.646;-9.154;2023-01-19T02:47:43;20.30;;;11.17;;
4638;SDS011;2332;38.646;-9.154;2023-01-19T02:52:53;21.27;;;11.60;;
4638;SDS011;2332;38.646;-9.154;2023-01-19T02:55:22;21.93;;;10.37;;
4638;SDS011;2332;38.646;-9.154;2023-01-19T02:57:55;18.73;;;9.93;;
4638;SDS011;2332;38.646;-9.154;2023-01-19T03:00:30;21.00;;;11.40;;
4638;SDS011;2332;38.646;-9.154;2023-01-19T03:08:05;17.43;;;10.30;;
4638;SDS011;2332;38.646;-9.154;2023-01-19T03:10:44;22.13;;;10.73;;
4638;SDS011;2332;38.646;-9.154;2023-01-19T03:13:16;24.80;;;11.87;;
4638;SDS011;2332;38.646;-9.154;2023-01-19T03:15:47;23.63;;;11.20;;
4638;SDS011;2332;38.646;-9.154;2023-01-19T03:18:14;22.30;;;10.73;;
4638;SDS011;2332;38.646;-9.154;2023-01-19T03:20:41;21.40;;;9.80;;
4638;SDS011;2332;38.646;-9.154;2023-01-19T03:23:09;17.37;;;8.87;;
4638;SDS011;2332;38.646;-9.154;2023-01-19T03:25:36;19.10;;;9.27;;
4638;SDS011;2332;38.646;-9.154;2023-01-19T03:28:03;19.83;;;8.70;;
4638;SDS011;2332;38.646;-9.154;2023-01-19T03:30:38;18.43;;;9.50;;
4638;SDS011;2332;38.646;-9.154;2023-01-19T03:33:07;19.87;;;8.20;;
4638;SDS011;2332;38.646;-9.154;2023-01-19T03:35:35;19.93;;;7.73;;
4638;SDS011;2332;38.646;-9.154;2023-01-19T03:38:02;17.87;;;6.83;;
4638;SDS011;2332;38.646;-9.154;2023-01-19T03:40:30;14.43;;;6.73;;
4638;SDS011;2332;38.646;-9.154;2023-01-19T03:42:57;16.50;;;5.83;;
4638;SDS011;2332;38.646;-9.154;2023-01-19T03:45:23;11.53;;;5.40;;
4638;SDS011;2332;38.646;-9.154;2023-01-19T03:47:48;15.70;;;6.07;;
4638;SDS011;2332;38.646;-9.154;2023-01-19T03:50:18;15.10;;;5.67;;
4638;SDS011;2332;38.646;-9.154;2023-01-19T03:52:44;11.67;;;5.67;;
4638;SDS011;2332;38.646;-9.154;2023-01-19T03:55:10;9.63;;;5.17;;
4638;SDS011;2332;38.646;-9.154;2023-01-19T03:57:35;14.60;;;5.43;;
4638;SDS011;2332;38.646;-9.154;2023-01-19T04:00:01;8.87;;;5.17;;
4638;SDS011;2332;38.646;-9.154;2023-01-19T04:02:26;10.50;;;3.60;;
4638;SDS011;2332;38.646;-9.154;2023-01-19T04:04:52;5.70;;;3.80;;
4638;SDS011;2332;38.646;-9.154;2023-01-19T04:07:17;16.03;;;3.80;;
4638;SDS011;2332;38.646;-9.154;2023-01-19T04:09:43;14.13;;;3.00;;
4638;SDS011;2332;38.646;-9.154;2023-01-19T04:12:08;12.60;;;2.47;;
4638;SDS011;2332;38.646;-9.154;2023-01-19T04:14:34;12.60;;;2.40;;
4638;SDS011;2332;38.646;-9.154;2023-01-19T04:16:59;13.43;;;3.30;;
4638;SDS011;2332;38.646;-9.154;2023-01-19T04:19:24;7.10;;;2.10;;
4638;SDS011;2332;38.646;-9.154;2023-01-19T04:21:50;7.90;;;2.50;;
4638;SDS011;2332;38.646;-9.154;2023-01-19T04:24:16;9.50;;;2.40;;
4638;SDS011;2332;38.646;-9.154;2023-01-19T04:26:41;10.40;;;2.50;;
4638;SDS011;2332;38.646;-9.154;2023-01-19T04:29:07;4.33;;;2.40;;
4638;SDS011;2332;38.646;-9.154;2023-01-19T04:31:32;12.60;;;3.60;;
4638;SDS011;2332;38.646;-9.154;2023-01-19T04:33:59;12.93;;;3.73;;
4638;SDS011;2332;38.646;-9.154;2023-01-19T04:36:25;9.40;;;3.13;;
4638;SDS011;2332;38.646;-9.154;2023-01-19T04:38:51;6.77;;;2.83;;
4638;SDS011;2332;38.646;-9.154;2023-01-19T04:41:17;9.37;;;3.37;;
4638;SDS011;2332;38.646;-9.154;2023-01-19T04:43:42;17.93;;;3.77;;
4638;SDS011;2332;38.646;-9.154;2023-01-19T04:46:08;15.33;;;3.67;;
4638;SDS011;2332;38.646;-9.154;2023-01-19T04:48:33;10.70;;;3.33;;
4638;SDS011;2332;38.646;-9.154;2023-01-19T04:50:58;11.60;;;3.47;;
4638;SDS011;2332;38.646;-9.154;2023-01-19T04:53:24;8.60;;;3.30;;
4638;SDS011;2332;38.646;-9.154;2023-01-19T04:55:53;10.67;;;3.70;;
4638;SDS011;2332;38.646;-9.154;2023-01-19T04:58:19;8.33;;;3.83;;
4638;SDS011;2332;38.646;-9.154;2023-01-19T05:00:44;13.10;;;3.80;;
4638;SDS011;2332;38.646;-9.154;2023-01-19T05:03:10;9.03;;;3.03;;
4638;SDS011;2332;38.646;-9.154;2023-01-19T05:05:35;8.07;;;3.70;;
4638;SDS011;2332;38.646;-9.154;2023-01-19T05:08:00;12.60;;;4.73;;
4638;SDS011;2332;38.646;-9.154;2023-01-19T05:10:26;11.93;;;4.10;;
4638;SDS011;2332;38.646;-9.154;2023-01-19T05:12:51;13.30;;;3.17;;
4638;SDS011;2332;38.646;-9.154;2023-01-19T05:15:17;4.27;;;2.47;;
4638;SDS011;2332;38.646;-9.154;2023-01-19T05:17:42;8.00;;;3.40;;
4638;SDS011;2332;38.646;-9.154;2023-01-19T05:20:09;12.73;;;3.60;;
4638;SDS011;2332;38.646;-9.154;2023-01-19T05:22:34;10.80;;;3.90;;
4638;SDS011;2332;38.646;-9.154;2023-01-19T05:25:00;14.63;;;3.80;;
4638;SDS011;2332;38.646;-9.154;2023-01-19T05:27:25;8.10;;;3.30;;
4638;SDS011;2332;38.646;-9.154;2023-01-19T05:29:51;14.80;;;3.63;;
4638;SDS011;2332;38.646;-9.154;2023-01-19T05:32:16;9.40;;;4.23;;
4638;SDS011;2332;38.646;-9.154;2023-01-19T05:34:42;16.00;;;3.77;;
4638;SDS011;2332;38.646;-9.154;2023-01-19T05:37:07;12.27;;;3.47;;
4638;SDS011;2332;38.646;-9.154;2023-01-19T05:39:32;14.97;;;4.00;;
4638;SDS011;2332;38.646;-9.154;2023-01-19T05:41:58;5.23;;;3.37;;
4638;SDS011;2332;38.646;-9.154;2023-01-19T05:44:23;10.60;;;4.73;;
4638;SDS011;2332;38.646;-9.154;2023-01-19T05:46:49;8.60;;;3.23;;
4638;SDS011;2332;38.646;-9.154;2023-01-19T05:49:14;9.00;;;3.93;;
4638;SDS011;2332;38.646;-9.154;2023-01-19T05:51:40;11.20;;;3.60;;
4638;SDS011;2332;38.646;-9.154;2023-01-19T05:54:10;7.83;;;3.23;;
4638;SDS011;2332;38.646;-9.154;2023-01-19T05:56:36;9.27;;;3.60;;
4638;SDS011;2332;38.646;-9.154;2023-01-19T05:59:03;9.13;;;3.77;;
4638;SDS011;2332;38.646;-9.154;2023-01-19T06:01:28;20.03;;;4.60;;
4638;SDS011;2332;38.646;-9.154;2023-01-19T06:03:54;14.43;;;4.20;;
4638;SDS011;2332;38.646;-9.154;2023-01-19T06:06:19;6.90;;;3.57;;
4638;SDS011;2332;38.646;-9.154;2023-01-19T06:08:45;8.87;;;3.53;;
4638;SDS011;2332;38.646;-9.154;2023-01-19T06:11:10;15.13;;;3.60;;
4638;SDS011;2332;38.646;-9.154;2023-01-19T06:13:36;17.97;;;4.53;;
4638;SDS011;2332;38.646;-9.154;2023-01-19T06:16:04;11.47;;;2.90;;
4638;SDS011;2332;38.646;-9.154;2023-01-19T06:18:30;10.97;;;3.20;;
4638;SDS011;2332;38.646;-9.154;2023-01-19T06:20:55;13.50;;;3.80;;
4638;SDS011;2332;38.646;-9.154;2023-01-19T06:23:28;11.40;;;3.40;;
4638;SDS011;2332;38.646;-9.154;2023-01-19T06:25:53;15.70;;;3.33;;
4638;SDS011;2332;38.646;-9.154;2023-01-19T06:28:18;10.07;;;2.80;;
4638;SDS011;2332;38.646;-9.154;2023-01-19T06:30:47;8.33;;;3.40;;
4638;SDS011;2332;38.646;-9.154;2023-01-19T06:33:13;12.87;;;3.57;;
4638;SDS011;2332;38.646;-9.154;2023-01-19T06:35:41;8.63;;;2.70;;
4638;SDS011;2332;38.646;-9.154;2023-01-19T06:38:07;8.77;;;3.10;;
4638;SDS011;2332;38.646;-9.154;2023-01-19T06:40:32;9.03;;;2.73;;
4638;SDS011;2332;38.646;-9.154;2023-01-19T06:42:57;8.90;;;2.70;;
4638;SDS011;2332;38.646;-9.154;2023-01-19T06:45:23;18.00;;;2.90;;
4638;SDS011;2332;38.646;-9.154;2023-01-19T06:47:48;15.03;;;3.40;;
4638;SDS011;2332;38.646;-9.154;2023-01-19T06:50:13;8.53;;;2.63;;
4638;SDS011;2332;38.646;-9.154;2023-01-19T06:52:39;12.27;;;3.00;;
4638;SDS011;2332;38.646;-9.154;2023-01-19T06:55:07;13.53;;;3.53;;
4638;SDS011;2332;38.646;-9.154;2023-01-19T06:57:35;15.23;;;3.47;;
4638;SDS011;2332;38.646;-9.154;2023-01-19T07:00:00;18.00;;;3.10;;
4638;SDS011;2332;38.646;-9.154;2023-01-19T07:02:29;14.87;;;3.90;;
4638;SDS011;2332;38.646;-9.154;2023-01-19T07:04:55;9.67;;;2.83;;
4638;SDS011;2332;38.646;-9.154;2023-01-19T07:07:20;12.60;;;2.90;;
4638;SDS011;2332;38.646;-9.154;2023-01-19T07:09:45;11.03;;;2.80;;
4638;SDS011;2332;38.646;-9.154;2023-01-19T07:12:11;16.43;;;3.70;;
4638;SDS011;2332;38.646;-9.154;2023-01-19T07:14:36;9.30;;;2.97;;
4638;SDS011;2332;38.646;-9.154;2023-01-19T07:17:02;13.60;;;2.70;;
4638;SDS011;2332;38.646;-9.154;2023-01-19T07:19:27;16.33;;;3.90;;
4638;SDS011;2332;38.646;-9.154;2023-01-19T07:21:52;16.17;;;4.70;;
4638;SDS011;2332;38.646;-9.154;2023-01-19T07:24:18;6.57;;;4.43;;
4638;SDS011;2332;38.646;-9.154;2023-01-19T07:26:43;19.10;;;5.57;;
4638;SDS011;2332;38.646;-9.154;2023-01-19T07:29:08;10.33;;;4.20;;
4638;SDS011;2332;38.646;-9.154;2023-01-19T07:31:34;16.57;;;5.00;;
4638;SDS011;2332;38.646;-9.154;2023-01-19T07:33:59;12.10;;;4.40;;
4638;SDS011;2332;38.646;-9.154;2023-01-19T07:36:25;13.97;;;5.27;;
4638;SDS011;2332;38.646;-9.154;2023-01-19T07:38:50;11.57;;;4.80;;
4638;SDS011;2332;38.646;-9.154;2023-01-19T07:41:16;13.03;;;4.57;;
4638;SDS011;2332;38.646;-9.154;2023-01-19T07:43:41;14.90;;;5.63;;
4638;SDS011;2332;38.646;-9.154;2023-01-19T07:46:06;14.77;;;4.77;;
4638;SDS011;2332;38.646;-9.154;2023-01-19T07:48:32;15.43;;;5.40;;
4638;SDS011;2332;38.646;-9.154;2023-01-19T07:50:58;17.33;;;5.13;;
4638;SDS011;2332;38.646;-9.154;2023-01-19T07:53:24;11.20;;;4.63;;
4638;SDS011;2332;38.646;-9.154;2023-01-19T07:55:54;13.03;;;3.63;;
4638;SDS011;2332;38.646;-9.154;2023-01-19T07:58:20;15.57;;;4.10;;
4638;SDS011;2332;38.646;-9.154;2023-01-19T08:00:46;11.53;;;4.10;;
4638;SDS011;2332;38.646;-9.154;2023-01-19T08:03:11;11.00;;;4.03;;
4638;SDS011;2332;38.646;-9.154;2023-01-19T08:05:36;11.07;;;3.77;;
4638;SDS011;2332;38.646;-9.154;2023-01-19T08:08:02;13.53;;;4.03;;
4638;SDS011;2332;38.646;-9.154;2023-01-19T08:10:29;9.30;;;3.10;;
4638;SDS011;2332;38.646;-9.154;2023-01-19T08:12:55;13.87;;;4.30;;
4638;SDS011;2332;38.646;-9.154;2023-01-19T08:15:21;10.30;;;3.70;;
4638;SDS011;2332;38.646;-9.154;2023-01-19T08:18:01;15.30;;;4.77;;
4638;SDS011;2332;38.646;-9.154;2023-01-19T08:20:29;17.40;;;6.40;;
4638;SDS011;2332;38.646;-9.154;2023-01-19T08:22:55;23.13;;;5.10;;
4638;SDS011;2332;38.646;-9.154;2023-01-19T08:27:55;12.50;;;5.20;;
4638;SDS011;2332;38.646;-9.154;2023-01-19T08:30:20;29.83;;;5.90;;
4638;SDS011;2332;38.646;-9.154;2023-01-19T08:32:47;18.07;;;6.20;;
4638;SDS011;2332;38.646;-9.154;2023-01-19T08:35:12;20.90;;;6.30;;
4638;SDS011;2332;38.646;-9.154;2023-01-19T08:37:37;17.17;;;5.90;;
4638;SDS011;2332;38.646;-9.154;2023-01-19T08:40:03;16.80;;;6.90;;
4638;SDS011;2332;38.646;-9.154;2023-01-19T08:42:28;24.13;;;10.00;;
4638;SDS011;2332;38.646;-9.154;2023-01-19T08:44:54;18.10;;;10.50;;
4638;SDS011;2332;38.646;-9.154;2023-01-19T08:47:20;25.13;;;12.33;;
4638;SDS011;2332;38.646;-9.154;2023-01-19T08:49:45;27.73;;;11.47;;
4638;SDS011;2332;38.646;-9.154;2023-01-19T08:52:11;23.73;;;11.10;;
4638;SDS011;2332;38.646;-9.154;2023-01-19T08:54:36;32.63;;;11.90;;
4638;SDS011;2332;38.646;-9.154;2023-01-19T08:57:01;35.27;;;13.93;;
4638;SDS011;2332;38.646;-9.154;2023-01-19T08:59:27;29.80;;;13.57;;
4638;SDS011;2332;38.646;-9.154;2023-01-19T09:01:52;38.80;;;18.80;;
4638;SDS011;2332;38.646;-9.154;2023-01-19T09:04:17;44.37;;;22.47;;
4638;SDS011;2332;38.646;-9.154;2023-01-19T09:06:43;42.43;;;17.50;;
4638;SDS011;2332;38.646;-9.154;2023-01-19T09:09:08;38.07;;;13.83;;
4638;SDS011;2332;38.646;-9.154;2023-01-19T09:11:33;28.20;;;12.40;;
4638;SDS011;2332;38.646;-9.154;2023-01-19T09:13:59;33.50;;;15.87;;
4638;SDS011;2332;38.646;-9.154;2023-01-19T09:16:24;36.50;;;16.30;;
4638;SDS011;2332;38.646;-9.154;2023-01-19T09:18:51;31.10;;;16.13;;
4638;SDS011;2332;38.646;-9.154;2023-01-19T09:21:16;41.37;;;17.17;;
4638;SDS011;2332;38.646;-9.154;2023-01-19T09:23:42;39.47;;;16.73;;
4638;SDS011;2332;38.646;-9.154;2023-01-19T09:26:08;37.53;;;16.50;;
4638;SDS011;2332;38.646;-9.154;2023-01-19T09:28:34;38.00;;;16.97;;
4638;SDS011;2332;38.646;-9.154;2023-01-19T09:31:03;38.93;;;12.03;;
4638;SDS011;2332;38.646;-9.154;2023-01-19T09:33:28;27.30;;;10.23;;
4638;SDS011;2332;38.646;-9.154;2023-01-19T09:35:54;35.90;;;9.10;;
4638;SDS011;2332;38.646;-9.154;2023-01-19T09:38:20;65.10;;;13.27;;
4638;SDS011;2332;38.646;-9.154;2023-01-19T09:40:53;30.83;;;12.20;;
4638;SDS011;2332;38.646;-9.154;2023-01-19T09:43:40;17.73;;;6.30;;
4638;SDS011;2332;38.646;-9.154;2023-01-19T09:46:28;16.87;;;5.40;;
4638;SDS011;2332;38.646;-9.154;2023-01-19T09:48:51;9.63;;;3.50;;
4638;SDS011;2332;38.646;-9.154;2023-01-19T09:51:24;22.00;;;3.77;;
4638;SDS011;2332;38.646;-9.154;2023-01-19T09:56:34;16.77;;;2.77;;
4638;SDS011;2332;38.646;-9.154;2023-01-19T09:59:00;10.83;;;2.43;;
4638;SDS011;2332;38.646;-9.154;2023-01-19T10:06:33;6.93;;;2.10;;
4638;SDS011;2332;38.646;-9.154;2023-01-19T10:09:05;8.20;;;2.00;;
4638;SDS011;2332;38.646;-9.154;2023-01-19T10:11:42;9.27;;;2.37;;
4638;SDS011;2332;38.646;-9.154;2023-01-19T10:14:11;15.13;;;3.43;;
4638;SDS011;2332;38.646;-9.154;2023-01-19T10:16:45;9.60;;;3.33;;
4638;SDS011;2332;38.646;-9.154;2023-01-19T10:19:19;16.23;;;3.37;;
4638;SDS011;2332;38.646;-9.154;2023-01-19T10:21:46;12.50;;;2.20;;
4638;SDS011;2332;38.646;-9.154;2023-01-19T10:24:16;17.30;;;3.03;;
4638;SDS011;2332;38.646;-9.154;2023-01-19T10:26:49;15.13;;;3.00;;
4638;SDS011;2332;38.646;-9.154;2023-01-19T10:29:27;23.53;;;4.37;;
4638;SDS011;2332;38.646;-9.154;2023-01-19T10:32:00;14.90;;;3.57;;
4638;SDS011;2332;38.646;-9.154;2023-01-19T10:34:28;13.40;;;3.90;;
4638;SDS011;2332;38.646;-9.154;2023-01-19T10:36:56;19.87;;;3.53;;
4638;SDS011;2332;38.646;-9.154;2023-01-19T10:39:23;11.70;;;3.77;;
4638;SDS011;2332;38.646;-9.154;2023-01-19T10:41:49;8.30;;;2.50;;
4638;SDS011;2332;38.646;-9.154;2023-01-19T10:44:22;9.30;;;3.57;;
4638;SDS011;2332;38.646;-9.154;2023-01-19T10:46:48;16.87;;;3.00;;
4638;SDS011;2332;38.646;-9.154;2023-01-19T10:51:57;10.13;;;2.13;;
4638;SDS011;2332;38.646;-9.154;2023-01-19T10:54:24;6.70;;;2.10;;
4638;SDS011;2332;38.646;-9.154;2023-01-19T10:56:57;7.27;;;1.70;;
4638;SDS011;2332;38.646;-9.154;2023-01-19T10:59:28;7.90;;;2.20;;
4638;SDS011;2332;38.646;-9.154;2023-01-19T11:04:38;8.43;;;2.03;;
4638;SDS011;2332;38.646;-9.154;2023-01-19T11:07:13;5.03;;;1.77;;
4638;SDS011;2332;38.646;-9.154;2023-01-19T11:09:39;11.27;;;1.57;;
4638;SDS011;2332;38.646;-9.154;2023-01-19T11:12:07;7.40;;;1.87;;
4638;SDS011;2332;38.646;-9.154;2023-01-19T11:14:39;10.13;;;1.70;;
4638;SDS011;2332;38.646;-9.154;2023-01-19T11:17:05;5.50;;;1.53;;
4638;SDS011;2332;38.646;-9.154;2023-01-19T11:19:38;5.47;;;1.83;;
4638;SDS011;2332;38.646;-9.154;2023-01-19T11:22:17;9.97;;;1.60;;
4638;SDS011;2332;38.646;-9.154;2023-01-19T11:24:49;3.50;;;0.90;;
4638;SDS011;2332;38.646;-9.154;2023-01-19T11:27:15;11.90;;;1.50;;
4638;SDS011;2332;38.646;-9.154;2023-01-19T11:29:44;6.03;;;1.73;;
4638;SDS011;2332;38.646;-9.154;2023-01-19T11:32:11;10.20;;;2.13;;
4638;SDS011;2332;38.646;-9.154;2023-01-19T11:34:43;7.20;;;1.30;;
4638;SDS011;2332;38.646;-9.154;2023-01-19T11:39:47;3.83;;;1.37;;
4638;SDS011;2332;38.646;-9.154;2023-01-19T11:42:13;7.60;;;1.33;;
4638;SDS011;2332;38.646;-9.154;2023-01-19T11:45:21;10.53;;;1.87;;
4638;SDS011;2332;38.646;-9.154;2023-01-19T11:47:33;4.10;;;1.20;;
4638;SDS011;2332;38.646;-9.154;2023-01-19T11:50:04;8.90;;;3.43;;
4638;SDS011;2332;38.646;-9.154;2023-01-19T11:52:38;4.23;;;1.23;;
4638;SDS011;2332;38.646;-9.154;2023-01-19T11:57:42;5.53;;;1.73;;
4638;SDS011;2332;38.646;-9.154;2023-01-19T12:00:33;10.57;;;3.10;;
4638;SDS011;2332;38.646;-9.154;2023-01-19T12:05:36;7.13;;;2.90;;
4638;SDS011;2332;38.646;-9.154;2023-01-19T12:08:05;5.43;;;1.57;;
4638;SDS011;2332;38.646;-9.154;2023-01-19T12:10:35;9.30;;;2.67;;
4638;SDS011;2332;38.646;-9.154;2023-01-19T12:13:02;7.30;;;3.37;;
4638;SDS011;2332;38.646;-9.154;2023-01-19T12:18:03;4.80;;;2.40;;
4638;SDS011;2332;38.646;-9.154;2023-01-19T12:23:23;7.07;;;1.30;;
4638;SDS011;2332;38.646;-9.154;2023-01-19T12:28:36;8.43;;;1.70;;
4638;SDS011;2332;38.646;-9.154;2023-01-19T12:31:03;5.00;;;2.27;;
4638;SDS011;2332;38.646;-9.154;2023-01-19T12:33:35;9.63;;;1.90;;
4638;SDS011;2332;38.646;-9.154;2023-01-19T12:36:03;5.10;;;1.80;;
4638;SDS011;2332;38.646;-9.154;2023-01-19T12:38:34;2.30;;;1.47;;
4638;SDS011;2332;38.646;-9.154;2023-01-19T12:41:19;12.13;;;2.63;;
4638;SDS011;2332;38.646;-9.154;2023-01-19T12:44:13;5.70;;;1.50;;
4638;SDS011;2332;38.646;-9.154;2023-01-19T12:46:31;6.07;;;1.63;;
4638;SDS011;2332;38.646;-9.154;2023-01-19T12:49:57;4.77;;;1.70;;
4638;SDS011;2332;38.646;-9.154;2023-01-19T12:52:09;8.37;;;1.40;;
4638;SDS011;2332;38.646;-9.154;2023-01-19T12:54:35;10.90;;;2.23;;
4638;SDS011;2332;38.646;-9.154;2023-01-19T12:57:03;9.97;;;1.70;;
4638;SDS011;2332;38.646;-9.154;2023-01-19T12:59:31;11.80;;;2.20;;
4638;SDS011;2332;38.646;-9.154;2023-01-19T13:07:27;4.60;;;1.60;;
4638;SDS011;2332;38.646;-9.154;2023-01-19T13:09:54;3.23;;;1.70;;
4638;SDS011;2332;38.646;-9.154;2023-01-19T13:12:24;5.03;;;2.00;;
4638;SDS011;2332;38.646;-9.154;2023-01-19T13:14:49;11.97;;;2.20;;
4638;SDS011;2332;38.646;-9.154;2023-01-19T13:17:21;3.87;;;1.63;;
4638;SDS011;2332;38.646;-9.154;2023-01-19T13:19:48;8.40;;;2.30;;
4638;SDS011;2332;38.646;-9.154;2023-01-19T13:25:12;6.17;;;1.70;;
4638;SDS011;2332;38.646;-9.154;2023-01-19T13:27:38;5.87;;;1.57;;
4638;SDS011;2332;38.646;-9.154;2023-01-19T13:30:11;6.23;;;1.73;;
4638;SDS011;2332;38.646;-9.154;2023-01-19T13:32:40;11.40;;;2.20;;
4638;SDS011;2332;38.646;-9.154;2023-01-19T13:35:11;8.50;;;2.53;;
4638;SDS011;2332;38.646;-9.154;2023-01-19T13:37:38;10.50;;;1.90;;
4638;SDS011;2332;38.646;-9.154;2023-01-19T13:40:04;5.83;;;1.60;;
4638;SDS011;2332;38.646;-9.154;2023-01-19T13:42:39;4.30;;;1.47;;
4638;SDS011;2332;38.646;-9.154;2023-01-19T13:45:47;3.90;;;1.63;;
4638;SDS011;2332;38.646;-9.154;2023-01-19T13:47:53;11.70;;;3.90;;
4638;SDS011;2332;38.646;-9.154;2023-01-19T13:50:22;9.57;;;1.70;;
4638;SDS011;2332;38.646;-9.154;2023-01-19T13:52:47;10.47;;;2.97;;
4638;SDS011;2332;38.646;-9.154;2023-01-19T13:55:15;6.57;;;1.23;;
4638;SDS011;2332;38.646;-9.154;2023-01-19T14:02:51;5.03;;;1.33;;
4638;SDS011;2332;38.646;-9.154;2023-01-19T14:07:42;10.80;;;1.30;;
4638;SDS011;2332;38.646;-9.154;2023-01-19T14:10:11;8.77;;;1.20;;
4638;SDS011;2332;38.646;-9.154;2023-01-19T14:12:37;9.03;;;1.17;;
4638;SDS011;2332;38.646;-9.154;2023-01-19T14:15:02;8.53;;;1.30;;
4638;SDS011;2332;38.646;-9.154;2023-01-19T14:17:30;3.47;;;0.80;;
4638;SDS011;2332;38.646;-9.154;2023-01-19T14:19:57;5.23;;;1.00;;
4638;SDS011;2332;38.646;-9.154;2023-01-19T14:22:41;4.50;;;1.27;;
4638;SDS011;2332;38.646;-9.154;2023-01-19T14:28:23;4.03;;;1.23;;
4638;SDS011;2332;38.646;-9.154;2023-01-19T14:30:36;5.73;;;1.00;;
4638;SDS011;2332;38.646;-9.154;2023-01-19T14:33:02;8.30;;;1.37;;
4638;SDS011;2332;38.646;-9.154;2023-01-19T14:35:27;4.93;;;0.90;;
4638;SDS011;2332;38.646;-9.154;2023-01-19T14:37:54;8.50;;;0.90;;
4638;SDS011;2332;38.646;-9.154;2023-01-19T14:40:20;7.50;;;1.20;;
4638;SDS011;2332;38.646;-9.154;2023-01-19T14:45:19;2.40;;;1.17;;
4638;SDS011;2332;38.646;-9.154;2023-01-19T14:47:51;2.90;;;1.10;;
4638;SDS011;2332;38.646;-9.154;2023-01-19T14:50:19;5.10;;;0.90;;
4638;SDS011;2332;38.646;-9.154;2023-01-19T14:52:51;4.80;;;0.90;;
4638;SDS011;2332;38.646;-9.154;2023-01-19T14:55:19;3.17;;;1.20;;
4638;SDS011;2332;38.646;-9.154;2023-01-19T15:10:51;5.03;;;1.33;;
4638;SDS011;2332;38.646;-9.154;2023-01-19T15:13:17;4.80;;;1.40;;
4638;SDS011;2332;38.646;-9.154;2023-01-19T15:15:43;1.07;;;0.90;;
4638;SDS011;2332;38.646;-9.154;2023-01-19T15:18:10;10.20;;;2.07;;
4638;SDS011;2332;38.646;-9.154;2023-01-19T15:20:37;4.77;;;2.00;;
4638;SDS011;2332;38.646;-9.154;2023-01-19T15:23:03;4.17;;;1.30;;
4638;SDS011;2332;38.646;-9.154;2023-01-19T15:25:28;13.87;;;2.90;;
4638;SDS011;2332;38.646;-9.154;2023-01-19T15:27:58;20.67;;;4.30;;
4638;SDS011;2332;38.646;-9.154;2023-01-19T15:30:24;21.67;;;4.37;;
4638;SDS011;2332;38.646;-9.154;2023-01-19T15:32:55;24.97;;;6.03;;
4638;SDS011;2332;38.646;-9.154;2023-01-19T15:35:21;15.73;;;3.10;;
4638;SDS011;2332;38.646;-9.154;2023-01-19T15:37:47;12.87;;;2.60;;
4638;SDS011;2332;38.646;-9.154;2023-01-19T15:40:13;9.53;;;3.43;;
4638;SDS011;2332;38.646;-9.154;2023-01-19T15:42:39;11.83;;;2.57;;
4638;SDS011;2332;38.646;-9.154;2023-01-19T15:47:56;14.67;;;2.70;;
4638;SDS011;2332;38.646;-9.154;2023-01-19T15:50:22;10.80;;;2.53;;
4638;SDS011;2332;38.646;-9.154;2023-01-19T15:52:48;5.87;;;1.30;;
4638;SDS011;2332;38.646;-9.154;2023-01-19T15:55:13;4.23;;;1.30;;
4638;SDS011;2332;38.646;-9.154;2023-01-19T15:57:40;1.53;;;1.10;;
4638;SDS011;2332;38.646;-9.154;2023-01-19T16:00:05;5.40;;;1.10;;
4638;SDS011;2332;38.646;-9.154;2023-01-19T16:02:31;4.33;;;1.10;;
4638;SDS011;2332;38.646;-9.154;2023-01-19T16:04:56;4.97;;;1.23;;
4638;SDS011;2332;38.646;-9.154;2023-01-19T16:07:22;4.00;;;1.30;;
4638;SDS011;2332;38.646;-9.154;2023-01-19T16:09:47;2.60;;;1.20;;